Aeroporto :
LOGIN :

Iscrizione | Disclaimer

   EN    FR    IT 

 










Sommario :    VFR   VFR Marginale   IFR   IFR Intensivo   IFR Molto Intensivo
Visibilità : 
Base nubi : 
>= 8 km
>= 3000ft
5 / 8 km
1000 / 3000 ft
1500m / 5 km
500 / 1000 ft
800 / 1500m
200 / 500 ft
< 800m
< 200 ft
Simboli :   Temporali  Nebbia  Neve Forte  Precipitazioni Forti  Vento > 20 kt
SIGMETs :   Varie  Temporali  Ghiacco  Turbolenza  Onda orograficha  Ceneri Vulcaniche






- Altitudine del aeroporto : 245 ft
- Codice IATA : BIQ


LFBZ - Biarritz

ULTIMO METAR :
  • 191730Z AUTO 05006KT CAVOK 18/14 Q1003 TEMPO 4000 -RA BKN010 BECMG 30010KT

METARs OBSOLETI :
  • 191700Z AUTO 07005KT CAVOK 18/14 Q1003 TEMPO 4000 -RA BKN010 BECMG 30010KT
  • 191630Z AUTO 06004KT 030V160 CAVOK 18/13 Q1003 TEMPO 4000 -RA BKN010 BECMG 30010KT
  • 191600Z AUTO 04005KT 9999 FEW066 BKN130 BKN240 19/13 Q1003 TEMPO 4000 -RA BKN010 BECMG 30010KT
  • 191530Z AUTO 02005KT 330V070 9999 FEW064 SCT084 BKN110 20/14 Q1004 TEMPO 4000 -RA BKN010
  • 191500Z AUTO 36007KT 310V030 9999 FEW068 SCT110 20/14 Q1004 TEMPO 4000 -RA BKN010

TAF TAF LFBZ
Valido dal 19 a 12 ore il 20 a 12 ore UTC


191100Z 1912/2012 23005KT 9999 BKN050
BECMG 1912/1914 30010KT
PROB30
TEMPO 1913/1915 -SHRA BKN050TCU
PROB30
TEMPO 1915/1920 4000 -RA BKN010
BECMG 1920/1922 13008KT
TEMPO 1920/2009 4000 RA OVC005
BECMG 2003/2005 26015G30KT
PROB30
TEMPO 2010/2012 -SHRA BKN040TCU



MetMap, La meteo Aeronautica in un colpo d'occhio ! - Copyright ORBIFLY Dicembre 2007 - Disclaimer

ORBIFLY MET'MAP TEAM :

Programmazione e sviluppo : Alexandra Zaïnal
Concezione e sviluppo : Baudouin d'Aumeries
Co-Programmazione e sviluppo : Marc-Olivier Méhu
Supporto tecnico e logistico : Manuel Goepfert
Aiuto per la traduzione : Arnaldo La Scala

Contatto : metmap@orbifly.com




FONTI E CREDITI :

   NOAA